sensor_id;sensor_type;location;lat;lon;timestamp;pressure;altitude;pressure_sealevel;temperature;humidity
63946;BME280;50122;56.330;43.838;2023-04-05T00:01:53;100832.56;;;8.66;62.70
63946;BME280;50122;56.330;43.838;2023-04-05T00:04:19;100839.56;;;8.67;62.58
63946;BME280;50122;56.330;43.838;2023-04-05T00:06:48;100827.41;;;8.62;62.87
63946;BME280;50122;56.330;43.838;2023-04-05T00:09:19;100830.22;;;8.56;62.99
63946;BME280;50122;56.330;43.838;2023-04-05T00:11:46;100825.75;;;8.58;63.11
63946;BME280;50122;56.330;43.838;2023-04-05T00:14:15;100831.75;;;8.64;62.82
63946;BME280;50122;56.330;43.838;2023-04-05T00:16:41;100822.84;;;8.68;62.50
63946;BME280;50122;56.330;43.838;2023-04-05T00:19:08;100825.41;;;8.72;62.71
63946;BME280;50122;56.330;43.838;2023-04-05T00:21:38;100829.72;;;8.74;62.30
63946;BME280;50122;56.330;43.838;2023-04-05T00:24:07;100825.44;;;8.70;62.52
63946;BME280;50122;56.330;43.838;2023-04-05T00:26:41;100836.06;;;8.67;62.59
63946;BME280;50122;56.330;43.838;2023-04-05T00:29:09;100834.38;;;8.64;62.92
63946;BME280;50122;56.330;43.838;2023-04-05T00:31:36;100831.84;;;8.61;62.53
63946;BME280;50122;56.330;43.838;2023-04-05T00:34:03;100831.06;;;8.56;62.21
63946;BME280;50122;56.330;43.838;2023-04-05T00:36:34;100834.63;;;8.55;62.44
63946;BME280;50122;56.330;43.838;2023-04-05T00:39:01;100833.78;;;8.53;62.94
63946;BME280;50122;56.330;43.838;2023-04-05T00:41:29;100840.97;;;8.48;62.58
63946;BME280;50122;56.330;43.838;2023-04-05T00:43:55;100827.94;;;8.40;62.53
63946;BME280;50122;56.330;43.838;2023-04-05T00:46:22;100824.63;;;8.33;62.77
63946;BME280;50122;56.330;43.838;2023-04-05T00:48:51;100829.13;;;8.28;63.16
63946;BME280;50122;56.330;43.838;2023-04-05T00:51:18;100825.78;;;8.22;63.13
63946;BME280;50122;56.330;43.838;2023-04-05T00:53:46;100827.78;;;8.13;63.37
63946;BME280;50122;56.330;43.838;2023-04-05T00:56:15;100831.50;;;8.05;63.60
63946;BME280;50122;56.330;43.838;2023-04-05T00:58:42;100829.03;;;7.97;63.87
63946;BME280;50122;56.330;43.838;2023-04-05T01:01:20;100834.53;;;7.88;64.49
63946;BME280;50122;56.330;43.838;2023-04-05T01:03:53;100838.31;;;7.76;64.17
63946;BME280;50122;56.330;43.838;2023-04-05T01:06:42;100835.06;;;7.64;64.83
63946;BME280;50122;56.330;43.838;2023-04-05T01:12:08;100823.44;;;7.36;64.83
63946;BME280;50122;56.330;43.838;2023-04-05T01:14:49;100832.41;;;7.27;65.49
63946;BME280;50122;56.330;43.838;2023-04-05T01:17:18;100830.88;;;7.17;65.69
63946;BME280;50122;56.330;43.838;2023-04-05T01:19:49;100837.22;;;7.05;66.01
63946;BME280;50122;56.330;43.838;2023-04-05T01:30:25;100842.44;;;6.61;67.42
63946;BME280;50122;56.330;43.838;2023-04-05T01:33:11;100843.41;;;6.57;68.01
63946;BME280;50122;56.330;43.838;2023-04-05T01:35:56;100846.09;;;6.52;67.91
63946;BME280;50122;56.330;43.838;2023-04-05T01:38:26;100847.91;;;6.50;68.16
63946;BME280;50122;56.330;43.838;2023-04-05T01:40:53;100845.34;;;6.47;68.40
63946;BME280;50122;56.330;43.838;2023-04-05T01:43:20;100856.75;;;6.45;68.62
63946;BME280;50122;56.330;43.838;2023-04-05T01:45:46;100855.09;;;6.40;68.64
63946;BME280;50122;56.330;43.838;2023-04-05T01:48:15;100850.81;;;6.35;68.53
63946;BME280;50122;56.330;43.838;2023-04-05T01:50:41;100855.25;;;6.30;68.73
63946;BME280;50122;56.330;43.838;2023-04-05T01:53:08;100858.88;;;6.24;68.70
63946;BME280;50122;56.330;43.838;2023-04-05T01:55:35;100852.75;;;6.22;68.95
63946;BME280;50122;56.330;43.838;2023-04-05T01:58:02;100859.81;;;6.20;69.71
63946;BME280;50122;56.330;43.838;2023-04-05T02:00:28;100857.22;;;6.18;69.64
63946;BME280;50122;56.330;43.838;2023-04-05T02:02:56;100861.59;;;6.16;69.83
63946;BME280;50122;56.330;43.838;2023-04-05T02:05:23;100858.19;;;6.13;69.74
63946;BME280;50122;56.330;43.838;2023-04-05T02:07:49;100852.97;;;6.11;70.08
63946;BME280;50122;56.330;43.838;2023-04-05T02:10:17;100865.25;;;6.07;70.20
63946;BME280;50122;56.330;43.838;2023-04-05T02:12:43;100865.25;;;6.07;70.52
63946;BME280;50122;56.330;43.838;2023-04-05T02:15:10;100875.75;;;6.07;70.45
63946;BME280;50122;56.330;43.838;2023-04-05T02:17:38;100874.00;;;6.06;70.57
63946;BME280;50122;56.330;43.838;2023-04-05T02:20:08;100866.06;;;6.13;71.12
63946;BME280;50122;56.330;43.838;2023-04-05T02:22:37;100865.88;;;6.22;70.97
63946;BME280;50122;56.330;43.838;2023-04-05T02:25:06;100861.38;;;6.30;70.47
63946;BME280;50122;56.330;43.838;2023-04-05T02:27:34;100863.88;;;6.38;70.96
63946;BME280;50122;56.330;43.838;2023-04-05T02:30:10;100873.38;;;6.45;70.54
63946;BME280;50122;56.330;43.838;2023-04-05T02:32:40;100859.25;;;6.52;70.57
63946;BME280;50122;56.330;43.838;2023-04-05T02:35:13;100859.03;;;6.65;70.86
63946;BME280;50122;56.330;43.838;2023-04-05T02:37:39;100858.00;;;6.73;70.24
63946;BME280;50122;56.330;43.838;2023-04-05T02:40:14;100857.75;;;6.86;70.07
63946;BME280;50122;56.330;43.838;2023-04-05T02:42:43;100859.28;;;6.96;69.84
63946;BME280;50122;56.330;43.838;2023-04-05T02:45:10;100857.44;;;7.01;69.42
63946;BME280;50122;56.330;43.838;2023-04-05T02:47:36;100859.03;;;7.10;69.88
63946;BME280;50122;56.330;43.838;2023-04-05T02:50:06;100867.59;;;7.20;69.60
63946;BME280;50122;56.330;43.838;2023-04-05T02:52:33;100854.28;;;7.27;69.09
63946;BME280;50122;56.330;43.838;2023-04-05T02:54:59;100862.88;;;7.36;69.21
63946;BME280;50122;56.330;43.838;2023-04-05T02:57:26;100863.59;;;7.42;69.51
63946;BME280;50122;56.330;43.838;2023-04-05T02:59:53;100867.00;;;7.47;69.33
63946;BME280;50122;56.330;43.838;2023-04-05T03:02:20;100865.97;;;7.55;68.94
63946;BME280;50122;56.330;43.838;2023-04-05T03:04:47;100874.66;;;7.60;69.03
63946;BME280;50122;56.330;43.838;2023-04-05T03:07:14;100884.16;;;7.64;68.92
63946;BME280;50122;56.330;43.838;2023-04-05T03:09:44;100880.53;;;7.70;68.69
63946;BME280;50122;56.330;43.838;2023-04-05T03:12:11;100888.25;;;7.79;68.73
63946;BME280;50122;56.330;43.838;2023-04-05T03:14:41;100891.78;;;7.78;67.81
63946;BME280;50122;56.330;43.838;2023-04-05T03:17:08;100899.84;;;7.70;68.13
63946;BME280;50122;56.330;43.838;2023-04-05T03:19:35;100900.72;;;7.69;68.40
63946;BME280;50122;56.330;43.838;2023-04-05T03:22:03;100900.63;;;7.74;68.01
63946;BME280;50122;56.330;43.838;2023-04-05T03:24:31;100904.94;;;7.78;68.10
63946;BME280;50122;56.330;43.838;2023-04-05T03:27:00;100909.19;;;7.83;68.00
63946;BME280;50122;56.330;43.838;2023-04-05T03:29:28;100908.19;;;7.89;67.38
63946;BME280;50122;56.330;43.838;2023-04-05T03:31:56;100920.34;;;7.95;67.20
63946;BME280;50122;56.330;43.838;2023-04-05T03:34:24;100916.66;;;8.02;67.17
63946;BME280;50122;56.330;43.838;2023-04-05T03:36:58;100919.22;;;8.05;67.22
63946;BME280;50122;56.330;43.838;2023-04-05T03:39:25;100920.13;;;8.04;66.93
63946;BME280;50122;56.330;43.838;2023-04-05T03:41:52;100913.00;;;8.09;66.64
63946;BME280;50122;56.330;43.838;2023-04-05T03:44:19;100915.47;;;8.15;66.09
63946;BME280;50122;56.330;43.838;2023-04-05T03:46:46;100910.81;;;8.27;66.23
63946;BME280;50122;56.330;43.838;2023-04-05T03:49:13;100910.53;;;8.38;65.49
63946;BME280;50122;56.330;43.838;2023-04-05T03:51:41;100919.03;;;8.50;65.96
63946;BME280;50122;56.330;43.838;2023-04-05T03:54:08;100907.34;;;8.61;65.44
63946;BME280;50122;56.330;43.838;2023-04-05T03:56:35;100914.16;;;8.71;65.36
63946;BME280;50122;56.330;43.838;2023-04-05T03:59:02;100913.03;;;8.80;64.63
63946;BME280;50122;56.330;43.838;2023-04-05T04:01:30;100911.09;;;8.86;63.96
63946;BME280;50122;56.330;43.838;2023-04-05T04:03:57;100911.00;;;8.90;63.83
63946;BME280;50122;56.330;43.838;2023-04-05T04:06:26;100915.16;;;8.98;63.85
63946;BME280;50122;56.330;43.838;2023-04-05T04:08:53;100908.75;;;9.09;63.44
63946;BME280;50122;56.330;43.838;2023-04-05T04:11:19;100905.94;;;9.15;63.05
63946;BME280;50122;56.330;43.838;2023-04-05T04:13:48;100919.78;;;9.23;63.38
63946;BME280;50122;56.330;43.838;2023-04-05T04:16:14;100916.00;;;9.32;63.10
63946;BME280;50122;56.330;43.838;2023-04-05T04:18:43;100923.78;;;9.36;62.69
63946;BME280;50122;56.330;43.838;2023-04-05T04:21:10;100930.63;;;9.44;62.66
63946;BME280;50122;56.330;43.838;2023-04-05T04:23:39;100930.38;;;9.51;62.13
63946;BME280;50122;56.330;43.838;2023-04-05T04:26:11;100934.47;;;9.62;62.15
63946;BME280;50122;56.330;43.838;2023-04-05T04:28:40;100942.44;;;9.60;61.61
63946;BME280;50122;56.330;43.838;2023-04-05T04:31:11;100946.16;;;9.53;61.92
63946;BME280;50122;56.330;43.838;2023-04-05T04:33:38;100946.22;;;9.51;62.03
63946;BME280;50122;56.330;43.838;2023-04-05T04:36:08;100945.50;;;9.46;62.26
63946;BME280;50122;56.330;43.838;2023-04-05T04:38:42;100943.28;;;9.62;61.88
63946;BME280;50122;56.330;43.838;2023-04-05T04:41:10;100950.50;;;9.85;60.80
63946;BME280;50122;56.330;43.838;2023-04-05T04:43:38;100941.16;;;10.03;60.13
63946;BME280;50122;56.330;43.838;2023-04-05T04:46:09;100940.03;;;10.11;59.19
63946;BME280;50122;56.330;43.838;2023-04-05T04:48:41;100945.81;;;10.23;59.10
63946;BME280;50122;56.330;43.838;2023-04-05T04:51:07;100939.25;;;10.37;58.57
63946;BME280;50122;56.330;43.838;2023-04-05T04:53:34;100937.78;;;10.55;58.09
63946;BME280;50122;56.330;43.838;2023-04-05T04:56:05;100943.31;;;10.74;57.50
63946;BME280;50122;56.330;43.838;2023-04-05T04:58:31;100935.72;;;10.90;56.90
63946;BME280;50122;56.330;43.838;2023-04-05T05:00:58;100935.94;;;11.09;56.14
63946;BME280;50122;56.330;43.838;2023-04-05T05:03:25;100944.22;;;11.23;55.70
63946;BME280;50122;56.330;43.838;2023-04-05T05:05:52;100941.84;;;11.41;55.34
63946;BME280;50122;56.330;43.838;2023-04-05T05:08:19;100942.19;;;11.55;54.59
63946;BME280;50122;56.330;43.838;2023-04-05T05:10:50;100945.13;;;11.71;54.71
63946;BME280;50122;56.330;43.838;2023-04-05T05:13:17;100940.63;;;11.73;53.52
63946;BME280;50122;56.330;43.838;2023-04-05T05:15:44;100947.66;;;11.74;53.45
63946;BME280;50122;56.330;43.838;2023-04-05T05:18:13;100949.25;;;11.78;52.96
63946;BME280;50122;56.330;43.838;2023-04-05T05:20:39;100934.19;;;11.80;52.60
63946;BME280;50122;56.330;43.838;2023-04-05T05:23:07;100948.09;;;11.86;52.48
63946;BME280;50122;56.330;43.838;2023-04-05T05:25:35;100944.53;;;11.87;51.11
63946;BME280;50122;56.330;43.838;2023-04-05T05:28:04;100947.88;;;11.92;51.17
63946;BME280;50122;56.330;43.838;2023-04-05T05:30:31;100950.31;;;11.98;50.45
63946;BME280;50122;56.330;43.838;2023-04-05T05:33:03;100951.09;;;12.00;49.67
63946;BME280;50122;56.330;43.838;2023-04-05T05:35:29;100954.50;;;12.04;49.94
63946;BME280;50122;56.330;43.838;2023-04-05T05:37:56;100958.06;;;12.03;49.36
63946;BME280;50122;56.330;43.838;2023-04-05T05:40:22;100953.69;;;12.02;49.76
63946;BME280;50122;56.330;43.838;2023-04-05T05:42:52;100951.81;;;12.05;49.86
63946;BME280;50122;56.330;43.838;2023-04-05T05:45:18;100952.44;;;12.12;49.82
63946;BME280;50122;56.330;43.838;2023-04-05T05:47:45;100956.66;;;12.16;49.82
63946;BME280;50122;56.330;43.838;2023-04-05T05:50:12;100950.13;;;12.03;49.07
63946;BME280;50122;56.330;43.838;2023-04-05T05:52:38;100956.81;;;11.89;49.46
63946;BME280;50122;56.330;43.838;2023-04-05T05:55:07;100959.38;;;11.91;49.46
63946;BME280;50122;56.330;43.838;2023-04-05T05:57:34;100958.38;;;11.95;49.50
63946;BME280;50122;56.330;43.838;2023-04-05T06:00:02;100958.69;;;11.86;49.56
63946;BME280;50122;56.330;43.838;2023-04-05T06:02:31;100955.31;;;11.82;49.50
63946;BME280;50122;56.330;43.838;2023-04-05T06:04:58;100961.19;;;11.90;49.61
63946;BME280;50122;56.330;43.838;2023-04-05T06:07:25;100959.19;;;11.97;49.58
63946;BME280;50122;56.330;43.838;2023-04-05T06:09:52;100960.78;;;12.01;48.64
63946;BME280;50122;56.330;43.838;2023-04-05T06:12:21;100956.31;;;12.03;48.57
63946;BME280;50122;56.330;43.838;2023-04-05T06:14:48;100959.75;;;12.05;47.80
63946;BME280;50122;56.330;43.838;2023-04-05T06:17:15;100960.44;;;12.10;48.50
63946;BME280;50122;56.330;43.838;2023-04-05T06:19:41;100957.78;;;12.10;48.72
63946;BME280;50122;56.330;43.838;2023-04-05T06:22:08;100970.09;;;12.11;49.05
63946;BME280;50122;56.330;43.838;2023-04-05T06:24:36;100967.94;;;12.21;49.18
63946;BME280;50122;56.330;43.838;2023-04-05T06:27:04;100964.69;;;12.37;49.20
63946;BME280;50122;56.330;43.838;2023-04-05T06:29:30;100962.56;;;12.45;48.76
63946;BME280;50122;56.330;43.838;2023-04-05T06:31:57;100963.13;;;12.53;48.27
63946;BME280;50122;56.330;43.838;2023-04-05T06:34:23;100962.81;;;12.61;47.74
63946;BME280;50122;56.330;43.838;2023-04-05T06:36:50;100969.66;;;12.66;47.11
63946;BME280;50122;56.330;43.838;2023-04-05T06:39:18;100966.75;;;12.73;47.67
63946;BME280;50122;56.330;43.838;2023-04-05T06:41:45;100968.22;;;12.80;47.32
63946;BME280;50122;56.330;43.838;2023-04-05T06:44:12;100964.44;;;12.85;47.56
63946;BME280;50122;56.330;43.838;2023-04-05T06:46:38;100967.69;;;12.92;47.15
63946;BME280;50122;56.330;43.838;2023-04-05T06:49:05;100969.16;;;12.99;47.21
63946;BME280;50122;56.330;43.838;2023-04-05T06:51:32;100971.94;;;13.17;47.05
63946;BME280;50122;56.330;43.838;2023-04-05T06:53:58;100967.69;;;13.54;46.41
63946;BME280;50122;56.330;43.838;2023-04-05T06:56:25;100963.72;;;14.01;45.44
63946;BME280;50122;56.330;43.838;2023-04-05T06:58:52;100966.22;;;14.42;44.58
63946;BME280;50122;56.330;43.838;2023-04-05T07:01:19;100955.56;;;14.79;43.93
63946;BME280;50122;56.330;43.838;2023-04-05T07:03:46;100951.88;;;14.99;43.31
63946;BME280;50122;56.330;43.838;2023-04-05T07:06:12;100954.13;;;15.24;43.28
63946;BME280;50122;56.330;43.838;2023-04-05T07:08:39;100952.53;;;15.37;42.40
63946;BME280;50122;56.330;43.838;2023-04-05T07:11:06;100954.09;;;15.41;43.08
63946;BME280;50122;56.330;43.838;2023-04-05T07:13:32;100954.41;;;15.35;42.30
63946;BME280;50122;56.330;43.838;2023-04-05T07:16:01;100956.72;;;15.25;42.71
63946;BME280;50122;56.330;43.838;2023-04-05T07:18:28;100956.06;;;15.20;42.87
63946;BME280;50122;56.330;43.838;2023-04-05T07:20:56;100959.75;;;15.18;42.74
63946;BME280;50122;56.330;43.838;2023-04-05T07:23:28;100960.84;;;15.14;43.16
63946;BME280;50122;56.330;43.838;2023-04-05T07:26:01;100965.19;;;14.99;42.91
63946;BME280;50122;56.330;43.838;2023-04-05T07:28:33;100971.06;;;14.88;42.65
63946;BME280;50122;56.330;43.838;2023-04-05T07:31:02;100964.88;;;14.87;43.11
63946;BME280;50122;56.330;43.838;2023-04-05T07:33:29;100966.28;;;14.94;42.87
63946;BME280;50122;56.330;43.838;2023-04-05T07:35:56;100966.50;;;15.07;42.32
63946;BME280;50122;56.330;43.838;2023-04-05T07:38:23;100963.13;;;15.21;42.43
63946;BME280;50122;56.330;43.838;2023-04-05T07:40:50;100962.25;;;15.38;42.76
63946;BME280;50122;56.330;43.838;2023-04-05T07:43:18;100964.69;;;15.59;41.87
63946;BME280;50122;56.330;43.838;2023-04-05T07:45:45;100962.63;;;15.82;41.42
63946;BME280;50122;56.330;43.838;2023-04-05T07:48:11;100961.25;;;16.06;40.84
63946;BME280;50122;56.330;43.838;2023-04-05T07:50:39;100960.38;;;16.22;40.63
63946;BME280;50122;56.330;43.838;2023-04-05T07:53:06;100957.78;;;16.36;40.43
63946;BME280;50122;56.330;43.838;2023-04-05T07:55:36;100969.91;;;16.42;39.23
63946;BME280;50122;56.330;43.838;2023-04-05T07:58:04;100964.22;;;16.32;39.06
63946;BME280;50122;56.330;43.838;2023-04-05T08:00:31;100968.81;;;16.14;39.35
63946;BME280;50122;56.330;43.838;2023-04-05T08:02:57;100964.78;;;15.91;39.95
63946;BME280;50122;56.330;43.838;2023-04-05T08:05:27;100973.28;;;15.82;40.16
63946;BME280;50122;56.330;43.838;2023-04-05T08:07:54;100965.75;;;15.72;40.73
63946;BME280;50122;56.330;43.838;2023-04-05T08:10:23;100971.41;;;15.66;40.91
63946;BME280;50122;56.330;43.838;2023-04-05T08:12:51;100969.31;;;15.55;40.66
63946;BME280;50122;56.330;43.838;2023-04-05T08:15:17;100967.63;;;15.54;41.12
63946;BME280;50122;56.330;43.838;2023-04-05T08:17:44;100976.47;;;15.55;41.08
63946;BME280;50122;56.330;43.838;2023-04-05T08:20:13;100974.13;;;15.49;41.00
63946;BME280;50122;56.330;43.838;2023-04-05T08:22:39;100982.13;;;15.49;40.90
63946;BME280;50122;56.330;43.838;2023-04-05T08:25:06;100977.47;;;15.52;40.45
63946;BME280;50122;56.330;43.838;2023-04-05T08:27:33;100970.28;;;15.54;40.50
63946;BME280;50122;56.330;43.838;2023-04-05T08:30:00;100974.56;;;15.57;39.91
63946;BME280;50122;56.330;43.838;2023-04-05T08:32:27;100969.00;;;15.61;40.24
63946;BME280;50122;56.330;43.838;2023-04-05T08:34:54;100968.50;;;15.71;40.22
63946;BME280;50122;56.330;43.838;2023-04-05T08:37:20;100967.97;;;15.82;40.51
63946;BME280;50122;56.330;43.838;2023-04-05T08:39:47;100954.03;;;15.92;39.38
63946;BME280;50122;56.330;43.838;2023-04-05T08:42:18;100967.59;;;15.88;39.68
63946;BME280;50122;56.330;43.838;2023-04-05T08:44:50;100961.75;;;15.97;39.74
63946;BME280;50122;56.330;43.838;2023-04-05T08:47:20;100964.41;;;16.13;39.96
63946;BME280;50122;56.330;43.838;2023-04-05T08:49:48;100961.56;;;16.16;39.21
63946;BME280;50122;56.330;43.838;2023-04-05T08:52:15;100960.47;;;16.20;39.13
63946;BME280;50122;56.330;43.838;2023-04-05T08:54:41;100966.84;;;16.34;39.07
63946;BME280;50122;56.330;43.838;2023-04-05T08:57:09;100964.47;;;16.43;38.82
63946;BME280;50122;56.330;43.838;2023-04-05T08:59:37;100967.56;;;16.52;38.44
63946;BME280;50122;56.330;43.838;2023-04-05T09:02:13;100970.66;;;16.60;37.99
63946;BME280;50122;56.330;43.838;2023-04-05T09:04:42;100968.47;;;16.66;38.22
63946;BME280;50122;56.330;43.838;2023-04-05T09:07:13;100964.06;;;16.81;37.64
63946;BME280;50122;56.330;43.838;2023-04-05T09:09:45;100967.56;;;16.98;38.24
63946;BME280;50122;56.330;43.838;2023-04-05T09:12:13;100976.00;;;17.21;37.02
63946;BME280;50122;56.330;43.838;2023-04-05T09:14:40;100969.03;;;17.32;37.15
63946;BME280;50122;56.330;43.838;2023-04-05T09:17:07;100966.34;;;18.46;34.89
63946;BME280;50122;56.330;43.838;2023-04-05T09:19:33;100960.47;;;19.84;32.70
63946;BME280;50122;56.330;43.838;2023-04-05T09:22:02;100957.22;;;20.77;30.70
63946;BME280;50122;56.330;43.838;2023-04-05T09:24:37;100961.50;;;21.83;29.73
63946;BME280;50122;56.330;43.838;2023-04-05T09:29:39;100962.97;;;23.29;27.14
63946;BME280;50122;56.330;43.838;2023-04-05T09:32:08;100947.69;;;23.39;26.39
63946;BME280;50122;56.330;43.838;2023-04-05T09:34:36;100960.25;;;23.90;26.36
63946;BME280;50122;56.330;43.838;2023-04-05T09:37:14;100967.06;;;24.65;24.90
63946;BME280;50122;56.330;43.838;2023-04-05T09:39:43;100962.50;;;24.75;24.23
63946;BME280;50122;56.330;43.838;2023-04-05T09:42:11;100955.91;;;25.92;23.77
63946;BME280;50122;56.330;43.838;2023-04-05T09:45:00;100961.69;;;27.41;21.75
63946;BME280;50122;56.330;43.838;2023-04-05T09:47:32;100963.84;;;27.98;21.29
63946;BME280;50122;56.330;43.838;2023-04-05T09:50:16;100956.81;;;28.55;20.23
63946;BME280;50122;56.330;43.838;2023-04-05T09:52:44;100957.19;;;28.85;20.52
63946;BME280;50122;56.330;43.838;2023-04-05T09:55:11;100960.72;;;29.26;19.97
63946;BME280;50122;56.330;43.838;2023-04-05T09:57:40;100964.06;;;29.45;19.09
63946;BME280;50122;56.330;43.838;2023-04-05T10:00:16;100966.16;;;28.44;20.40
63946;BME280;50122;56.330;43.838;2023-04-05T10:02:44;100966.47;;;28.41;21.04
63946;BME280;50122;56.330;43.838;2023-04-05T10:05:13;100958.69;;;29.04;19.92
63946;BME280;50122;56.330;43.838;2023-04-05T10:07:41;100967.22;;;28.68;20.43
63946;BME280;50122;56.330;43.838;2023-04-05T10:10:09;100977.03;;;29.10;20.11
63946;BME280;50122;56.330;43.838;2023-04-05T10:12:39;100975.31;;;29.42;19.78
63946;BME280;50122;56.330;43.838;2023-04-05T10:15:07;100973.44;;;29.42;20.25
63946;BME280;50122;56.330;43.838;2023-04-05T10:17:46;100970.53;;;30.55;19.29
63946;BME280;50122;56.330;43.838;2023-04-05T10:20:21;100969.44;;;30.09;18.84
63946;BME280;50122;56.330;43.838;2023-04-05T10:28:36;100969.94;;;30.36;18.17
63946;BME280;50122;56.330;43.838;2023-04-05T10:31:28;100980.56;;;29.52;19.06
63946;BME280;50122;56.330;43.838;2023-04-05T10:34:05;100975.47;;;29.96;19.10
63946;BME280;50122;56.330;43.838;2023-04-05T10:39:26;100966.69;;;30.41;18.51
63946;BME280;50122;56.330;43.838;2023-04-05T10:44:42;100963.81;;;31.57;17.36
63946;BME280;50122;56.330;43.838;2023-04-05T10:47:13;100960.69;;;32.48;16.90
63946;BME280;50122;56.330;43.838;2023-04-05T10:49:45;100961.66;;;32.40;16.66
63946;BME280;50122;56.330;43.838;2023-04-05T10:52:15;100963.28;;;33.06;15.66
63946;BME280;50122;56.330;43.838;2023-04-05T10:54:42;100963.22;;;33.21;14.65
63946;BME280;50122;56.330;43.838;2023-04-05T10:57:10;100961.13;;;31.78;16.48
63946;BME280;50122;56.330;43.838;2023-04-05T10:59:42;100959.72;;;31.52;16.56
63946;BME280;50122;56.330;43.838;2023-04-05T11:02:10;100956.38;;;32.17;16.41
63946;BME280;50122;56.330;43.838;2023-04-05T11:04:38;100955.44;;;32.68;15.40
63946;BME280;50122;56.330;43.838;2023-04-05T11:09:37;100960.19;;;32.87;15.03
63946;BME280;50122;56.330;43.838;2023-04-05T11:12:05;100966.41;;;32.53;14.95
63946;BME280;50122;56.330;43.838;2023-04-05T11:14:36;100966.22;;;32.98;15.47
63946;BME280;50122;56.330;43.838;2023-04-05T11:17:24;100958.44;;;33.30;14.78
63946;BME280;50122;56.330;43.838;2023-04-05T11:20:01;100963.63;;;33.53;14.12
63946;BME280;50122;56.330;43.838;2023-04-05T11:22:28;100959.63;;;33.90;14.19
63946;BME280;50122;56.330;43.838;2023-04-05T11:25:00;100960.41;;;34.53;13.73
63946;BME280;50122;56.330;43.838;2023-04-05T11:27:30;100970.00;;;32.75;14.54
63946;BME280;50122;56.330;43.838;2023-04-05T11:30:00;100965.09;;;31.76;15.59
63946;BME280;50122;56.330;43.838;2023-04-05T11:32:44;100965.16;;;31.08;16.67
63946;BME280;50122;56.330;43.838;2023-04-05T11:35:15;100969.13;;;30.04;17.72
63946;BME280;50122;56.330;43.838;2023-04-05T11:40:32;100960.47;;;30.78;17.08
63946;BME280;50122;56.330;43.838;2023-04-05T11:45:33;100953.19;;;34.25;14.46
63946;BME280;50122;56.330;43.838;2023-04-05T11:48:07;100962.31;;;34.59;14.06
63946;BME280;50122;56.330;43.838;2023-04-05T11:50:38;100960.94;;;34.15;13.47
63946;BME280;50122;56.330;43.838;2023-04-05T11:55:47;100966.31;;;33.81;14.85
63946;BME280;50122;56.330;43.838;2023-04-05T11:58:20;100956.81;;;33.77;14.63
63946;BME280;50122;56.330;43.838;2023-04-05T12:00:58;100953.25;;;32.85;14.65
63946;BME280;50122;56.330;43.838;2023-04-05T12:03:26;100957.94;;;33.19;14.73
63946;BME280;50122;56.330;43.838;2023-04-05T12:05:58;100945.78;;;33.29;15.42
63946;BME280;50122;56.330;43.838;2023-04-05T12:08:44;100961.72;;;33.95;15.03
63946;BME280;50122;56.330;43.838;2023-04-05T12:11:36;100949.06;;;33.52;14.09
63946;BME280;50122;56.330;43.838;2023-04-05T12:14:06;100950.38;;;32.28;15.50
63946;BME280;50122;56.330;43.838;2023-04-05T12:16:33;100948.66;;;31.91;16.17
63946;BME280;50122;56.330;43.838;2023-04-05T12:19:00;100950.22;;;31.33;15.90
63946;BME280;50122;56.330;43.838;2023-04-05T12:21:27;100940.06;;;30.51;16.57
63946;BME280;50122;56.330;43.838;2023-04-05T12:23:57;100964.13;;;30.16;17.22
63946;BME280;50122;56.330;43.838;2023-04-05T12:26:24;100950.78;;;30.21;17.29
63946;BME280;50122;56.330;43.838;2023-04-05T12:28:55;100946.91;;;30.39;17.50
63946;BME280;50122;56.330;43.838;2023-04-05T12:31:44;100938.03;;;29.90;17.54
63946;BME280;50122;56.330;43.838;2023-04-05T12:34:12;100940.56;;;30.23;17.69
63946;BME280;50122;56.330;43.838;2023-04-05T12:36:43;100939.69;;;30.00;18.14
63946;BME280;50122;56.330;43.838;2023-04-05T12:39:11;100935.50;;;31.20;16.65
63946;BME280;50122;56.330;43.838;2023-04-05T12:41:38;100933.00;;;31.99;15.51
63946;BME280;50122;56.330;43.838;2023-04-05T12:44:13;100951.91;;;31.49;16.31
63946;BME280;50122;56.330;43.838;2023-04-05T12:46:47;100955.84;;;30.01;17.38
63946;BME280;50122;56.330;43.838;2023-04-05T12:49:15;100952.25;;;29.61;18.30
63946;BME280;50122;56.330;43.838;2023-04-05T12:51:44;100948.22;;;30.28;17.62
63946;BME280;50122;56.330;43.838;2023-04-05T12:54:12;100947.69;;;30.01;17.32
63946;BME280;50122;56.330;43.838;2023-04-05T12:56:42;100944.88;;;29.38;18.47
63946;BME280;50122;56.330;43.838;2023-04-05T12:59:08;100951.53;;;28.94;18.66
63946;BME280;50122;56.330;43.838;2023-04-05T13:01:37;100948.47;;;29.06;18.30
63946;BME280;50122;56.330;43.838;2023-04-05T13:04:06;100953.56;;;29.25;17.92
63946;BME280;50122;56.330;43.838;2023-04-05T13:06:45;100938.94;;;29.02;18.16
63946;BME280;50122;56.330;43.838;2023-04-05T13:09:15;100949.69;;;28.95;18.22
63946;BME280;50122;56.330;43.838;2023-04-05T13:11:42;100947.47;;;28.66;18.68
63946;BME280;50122;56.330;43.838;2023-04-05T13:14:09;100943.03;;;28.40;18.57
63946;BME280;50122;56.330;43.838;2023-04-05T13:16:37;100951.22;;;28.81;18.61
63946;BME280;50122;56.330;43.838;2023-04-05T13:19:04;100957.31;;;28.58;18.15
63946;BME280;50122;56.330;43.838;2023-04-05T13:21:30;100953.25;;;27.87;18.63
63946;BME280;50122;56.330;43.838;2023-04-05T13:23:58;100949.72;;;27.52;19.38
63946;BME280;50122;56.330;43.838;2023-04-05T13:26:25;100951.16;;;27.38;19.46
63946;BME280;50122;56.330;43.838;2023-04-05T13:28:52;100940.63;;;27.17;19.60